createdAt,value
2022-11-29T00:00:53.474Z,23.00
2022-11-29T00:11:07.518Z,23.00
2022-11-29T00:21:17.481Z,23.00
2022-11-29T00:31:48.708Z,22.90
2022-11-29T00:42:27.750Z,22.90
2022-11-29T01:04:21.317Z,22.60
2022-11-29T01:14:30.621Z,21.70
2022-11-29T01:24:41.745Z,21.60
2022-11-29T01:34:53.661Z,21.70
2022-11-29T01:45:09.007Z,22.00
2022-11-29T01:56:29.289Z,22.40
2022-11-29T02:06:40.598Z,22.50
2022-11-29T02:16:59.022Z,22.60
2022-11-29T02:27:41.008Z,22.60
2022-11-29T02:38:08.227Z,22.70
2022-11-29T02:48:43.382Z,23.00
2022-11-29T02:58:59.444Z,23.00
2022-11-29T03:09:15.392Z,23.10
2022-11-29T03:19:58.392Z,23.10
2022-11-29T03:30:09.232Z,23.60
2022-11-29T03:40:22.098Z,23.90
2022-11-29T03:50:38.775Z,24.00
2022-11-29T04:01:25.333Z,24.00
2022-11-29T04:12:04.336Z,24.10
2022-11-29T04:22:35.775Z,24.00
2022-11-29T04:33:30.343Z,24.20
2022-11-29T04:44:02.615Z,24.20
2022-11-29T04:54:18.591Z,24.20
2022-11-29T05:04:39.451Z,24.20
2022-11-29T05:15:07.873Z,24.20
2022-11-29T05:25:40.448Z,24.20
2022-11-29T05:36:23.192Z,24.10
2022-11-29T05:46:59.149Z,24.10
2022-11-29T05:57:16.107Z,24.10
2022-11-29T06:07:29.643Z,24.10
2022-11-29T06:17:53.682Z,24.00
2022-11-29T06:28:23.594Z,24.10
2022-11-29T06:38:34.525Z,24.00
2022-11-29T06:48:49.703Z,24.00
2022-11-29T06:59:05.728Z,24.00
2022-11-29T07:09:19.111Z,23.90
2022-11-29T07:19:36.886Z,23.90
2022-11-29T07:29:58.179Z,23.90
2022-11-29T07:40:14.950Z,23.70
2022-11-29T07:50:24.764Z,23.50
2022-11-29T08:00:31.942Z,23.40
2022-11-29T08:10:41.636Z,23.40
2022-11-29T08:20:49.257Z,23.30
2022-11-29T08:31:04.405Z,23.20
2022-11-29T08:41:14.082Z,23.10
2022-11-29T08:51:22.827Z,23.10
2022-11-29T09:01:30.132Z,23.10
2022-11-29T09:11:39.372Z,23.00
2022-11-29T09:21:46.917Z,23.00
2022-11-29T09:31:55.700Z,23.00
2022-11-29T09:42:21.507Z,23.00
2022-11-29T09:52:45.765Z,22.90
2022-11-29T10:02:56.886Z,22.90
2022-11-29T10:13:13.041Z,22.90
2022-11-29T10:23:26.605Z,22.90
2022-11-29T10:33:41.179Z,22.90
2022-11-29T10:43:48.221Z,22.80
2022-11-29T10:53:57.339Z,22.90
2022-11-29T11:04:06.064Z,22.80
2022-11-29T11:14:23.964Z,22.80
2022-11-29T11:24:32.622Z,22.90
2022-11-29T11:34:41.628Z,22.80
2022-11-29T11:44:51.348Z,22.80
2022-11-29T11:55:03.102Z,22.80
2022-11-29T12:05:16.262Z,22.80
2022-11-29T12:15:28.800Z,22.80
2022-11-29T12:25:43.055Z,22.70
2022-11-29T12:36:04.989Z,22.70
2022-11-29T12:46:17.489Z,22.70
2022-11-29T12:56:30.358Z,22.70
2022-11-29T13:06:44.899Z,22.70
2022-11-29T13:16:58.859Z,22.70
2022-11-29T13:28:19.221Z,22.70
2022-11-29T13:38:33.211Z,22.70
2022-11-29T13:48:51.069Z,22.70
2022-11-29T13:59:01.931Z,22.70
2022-11-29T14:09:30.333Z,22.70
2022-11-29T14:19:40.201Z,22.70
2022-11-29T14:29:57.712Z,22.70
2022-11-29T14:40:15.974Z,22.70
2022-11-29T14:50:35.545Z,22.70
2022-11-29T15:00:58.639Z,22.60
2022-11-29T15:11:13.996Z,22.70
2022-11-29T15:21:31.791Z,22.60
2022-11-29T15:31:40.730Z,22.90
2022-11-29T15:41:49.590Z,23.10
2022-11-29T15:52:00.904Z,23.10
2022-11-29T16:02:19.234Z,23.20
2022-11-29T16:12:36.852Z,23.10
2022-11-29T16:22:45.794Z,23.30
2022-11-29T16:32:57.963Z,23.40
2022-11-29T16:43:45.142Z,23.50
2022-11-29T16:53:52.751Z,23.40
2022-11-29T17:04:02.346Z,23.10
2022-11-29T17:14:09.491Z,22.90
2022-11-29T17:24:19.943Z,22.70
2022-11-29T17:34:27.900Z,22.80
2022-11-29T17:44:36.718Z,22.80
2022-11-29T17:54:43.754Z,22.70
2022-11-29T18:04:52.499Z,22.80
2022-11-29T18:14:59.851Z,22.80
2022-11-29T18:25:36.971Z,22.90
2022-11-29T18:35:36.851Z,22.90
2022-11-29T18:45:45.506Z,23.00
2022-11-29T18:56:01.568Z,23.00
2022-11-29T19:06:13.292Z,22.90
2022-11-29T19:16:21.554Z,23.00
2022-11-29T19:26:31.929Z,23.10
2022-11-29T19:36:44.131Z,23.20
2022-11-29T19:46:53.702Z,23.30
2022-11-29T19:57:00.930Z,23.30
2022-11-29T20:07:09.591Z,23.20
2022-11-29T20:17:17.283Z,23.10
2022-11-29T20:27:26.093Z,23.10
2022-11-29T20:37:48.546Z,23.10
2022-11-29T20:48:00.777Z,23.10
2022-11-29T20:58:08.027Z,23.00
2022-11-29T21:08:17.736Z,22.60
2022-11-29T21:18:26.720Z,22.30
2022-11-29T21:28:40.153Z,22.30
2022-11-29T21:38:53.943Z,22.60
2022-11-29T21:49:03.543Z,22.60
2022-11-29T21:59:10.985Z,22.70
2022-11-29T22:09:19.734Z,22.70
2022-11-29T22:19:28.115Z,22.60
2022-11-29T22:29:37.098Z,22.60
2022-11-29T22:39:44.692Z,22.60
2022-11-29T22:49:53.385Z,22.50
2022-11-29T23:00:00.325Z,22.40
2022-11-29T23:10:10.803Z,22.30
2022-11-29T23:20:18.101Z,22.30
2022-11-29T23:30:26.722Z,22.40
2022-11-29T23:40:34.337Z,22.80
2022-11-29T23:50:43.788Z,22.90
